createdAt,value
2023-02-13T00:00:32.221Z,8.00
2023-02-13T00:03:00.258Z,8.00
2023-02-13T00:05:27.251Z,8.00
2023-02-13T00:07:54.300Z,7.90
2023-02-13T00:10:21.326Z,7.90
2023-02-13T00:12:48.347Z,7.90
2023-02-13T00:15:15.260Z,7.80
2023-02-13T00:17:42.261Z,7.80
2023-02-13T00:20:11.116Z,7.70
2023-02-13T00:22:38.504Z,7.70
2023-02-13T00:25:06.347Z,7.60
2023-02-13T00:27:33.909Z,7.60
2023-02-13T00:30:00.883Z,7.60
2023-02-13T00:32:27.841Z,7.60
2023-02-13T00:34:54.943Z,7.60
2023-02-13T00:37:22.011Z,7.60
2023-02-13T00:39:49.053Z,7.60
2023-02-13T00:42:16.001Z,7.50
2023-02-13T00:44:43.022Z,7.50
2023-02-13T00:47:10.161Z,7.50
2023-02-13T00:49:37.140Z,7.60
2023-02-13T00:52:04.094Z,7.50
2023-02-13T00:54:31.128Z,7.40
2023-02-13T00:56:58.040Z,7.40
2023-02-13T00:59:25.021Z,7.40
2023-02-13T01:01:52.172Z,7.40
2023-02-13T01:04:19.625Z,7.40
2023-02-13T01:06:46.785Z,7.30
2023-02-13T01:09:13.920Z,7.30
2023-02-13T01:11:40.761Z,7.30
2023-02-13T01:14:07.787Z,7.20
2023-02-13T01:16:34.742Z,7.20
2023-02-13T01:19:01.713Z,7.10
2023-02-13T01:21:31.591Z,7.10
2023-02-13T01:23:58.747Z,7.10
2023-02-13T01:26:25.707Z,7.00
2023-02-13T01:28:54.285Z,7.00
2023-02-13T01:31:21.902Z,6.90
2023-02-13T01:33:48.840Z,6.90
2023-02-13T01:36:16.085Z,6.90
2023-02-13T01:38:43.279Z,6.80
2023-02-13T01:41:10.746Z,6.80
2023-02-13T01:43:44.968Z,6.70
2023-02-13T01:46:13.046Z,6.70
2023-02-13T01:48:40.028Z,6.70
2023-02-13T01:51:08.947Z,6.60
2023-02-13T01:53:38.963Z,6.60
2023-02-13T01:56:08.461Z,6.60
2023-02-13T01:58:37.974Z,6.50
2023-02-13T02:01:05.927Z,6.40
2023-02-13T02:03:37.580Z,6.30
2023-02-13T02:06:05.369Z,6.30
2023-02-13T02:08:32.400Z,6.30
2023-02-13T02:11:06.768Z,6.20
2023-02-13T02:13:33.693Z,6.10
2023-02-13T02:16:01.019Z,6.10
2023-02-13T02:18:30.246Z,6.10
2023-02-13T02:21:09.609Z,5.90
2023-02-13T02:23:55.442Z,5.90
2023-02-13T02:26:40.974Z,5.80
2023-02-13T02:29:18.086Z,5.80
2023-02-13T02:32:03.856Z,5.70
2023-02-13T02:34:34.014Z,5.60
2023-02-13T02:37:16.152Z,5.50
2023-02-13T02:39:57.250Z,5.40
2023-02-13T02:42:27.128Z,5.40
2023-02-13T02:45:14.321Z,5.30
2023-02-13T02:48:02.838Z,5.20
2023-02-13T02:50:52.851Z,5.20
2023-02-13T02:53:19.778Z,5.20
2023-02-13T02:55:49.838Z,5.20
2023-02-13T02:58:45.053Z,5.10
2023-02-13T03:01:32.618Z,5.10
2023-02-13T03:04:18.796Z,5.10
2023-02-13T03:07:03.120Z,5.00
2023-02-13T03:09:50.138Z,4.90
2023-02-13T03:12:40.538Z,4.90
2023-02-13T03:15:07.644Z,4.90
2023-02-13T03:17:53.526Z,4.80
2023-02-13T03:20:58.145Z,4.80
2023-02-13T03:23:28.077Z,4.80
2023-02-13T03:26:13.695Z,4.70
2023-02-13T03:29:01.967Z,4.70
2023-02-13T03:31:36.329Z,4.60
2023-02-13T03:34:09.669Z,4.60
2023-02-13T03:37:10.677Z,4.60
2023-02-13T03:39:37.562Z,4.50
2023-02-13T03:42:06.599Z,4.40
2023-02-13T03:44:37.161Z,4.40
2023-02-13T03:47:06.049Z,4.30
2023-02-13T03:49:56.561Z,4.20
2023-02-13T03:52:32.495Z,4.20
2023-02-13T03:55:20.155Z,4.20
2023-02-13T03:58:06.946Z,4.20
2023-02-13T04:00:36.847Z,4.20
2023-02-13T04:03:20.461Z,4.10
2023-02-13T04:05:49.889Z,4.10
2023-02-13T04:08:16.857Z,4.00
2023-02-13T04:11:07.173Z,4.00
2023-02-13T04:13:35.501Z,3.90
2023-02-13T04:16:02.445Z,3.90
2023-02-13T04:18:31.039Z,3.90
2023-02-13T04:21:01.390Z,3.80
2023-02-13T04:23:30.874Z,3.80
2023-02-13T04:25:58.653Z,3.70
2023-02-13T04:28:25.711Z,3.70
2023-02-13T04:30:52.843Z,3.70
2023-02-13T04:33:19.886Z,3.70
2023-02-13T04:35:46.912Z,3.70
2023-02-13T04:38:13.857Z,3.70
2023-02-13T04:40:40.854Z,3.70
2023-02-13T04:43:10.234Z,3.60
2023-02-13T04:45:37.341Z,3.60
2023-02-13T04:48:04.348Z,3.60
2023-02-13T04:50:31.239Z,3.60
2023-02-13T04:52:59.928Z,3.60
2023-02-13T04:55:27.874Z,3.50
2023-02-13T04:57:55.542Z,3.50
2023-02-13T05:00:23.104Z,3.40
2023-02-13T05:02:50.073Z,3.40
2023-02-13T05:05:17.282Z,3.40
2023-02-13T05:07:44.209Z,3.40
2023-02-13T05:10:12.018Z,3.40
2023-02-13T05:12:39.222Z,3.30
2023-02-13T05:15:06.497Z,3.30
2023-02-13T05:17:33.589Z,3.30
2023-02-13T05:20:00.665Z,3.30
2023-02-13T05:22:46.508Z,3.30
2023-02-13T05:25:13.391Z,3.30
2023-02-13T05:27:40.237Z,3.30
2023-02-13T05:30:07.507Z,3.30
2023-02-13T05:32:34.492Z,3.30
2023-02-13T05:35:04.233Z,3.40
2023-02-13T05:37:31.586Z,3.30
2023-02-13T05:39:58.546Z,3.40
2023-02-13T05:42:25.463Z,3.40
2023-02-13T05:44:52.687Z,3.40
2023-02-13T05:47:19.641Z,3.40
2023-02-13T05:49:46.551Z,3.40
2023-02-13T05:52:13.469Z,3.40
2023-02-13T05:54:40.511Z,3.40
2023-02-13T05:57:07.572Z,3.40
2023-02-13T05:59:34.492Z,3.40
2023-02-13T06:02:01.518Z,3.30
2023-02-13T06:04:28.456Z,3.30
2023-02-13T06:06:55.628Z,3.30
2023-02-13T06:09:22.491Z,3.30
2023-02-13T06:11:49.391Z,3.30
2023-02-13T06:14:16.580Z,3.30
2023-02-13T06:16:44.525Z,3.30
2023-02-13T06:19:11.561Z,3.30
2023-02-13T06:21:47.636Z,3.20
2023-02-13T06:24:16.172Z,3.30
2023-02-13T06:26:43.556Z,3.30
2023-02-13T06:29:21.310Z,3.20
2023-02-13T06:31:48.616Z,3.20
2023-02-13T06:34:15.661Z,3.30
2023-02-13T06:36:43.210Z,3.30
2023-02-13T06:39:11.067Z,3.20
2023-02-13T06:41:38.010Z,3.10
2023-02-13T06:44:05.156Z,3.20
2023-02-13T06:46:32.080Z,3.10
2023-02-13T06:48:58.979Z,3.00
2023-02-13T06:51:25.992Z,3.00
2023-02-13T06:53:52.840Z,3.00
2023-02-13T06:56:19.780Z,2.90
2023-02-13T06:58:46.754Z,2.80
2023-02-13T07:01:13.935Z,2.80
2023-02-13T07:03:40.943Z,2.70
2023-02-13T07:06:08.100Z,2.70
2023-02-13T07:08:35.119Z,2.70
2023-02-13T07:11:02.163Z,2.70
2023-02-13T07:13:29.128Z,2.70
2023-02-13T07:16:01.414Z,2.60
2023-02-13T07:18:28.463Z,2.60
2023-02-13T07:20:55.505Z,2.60
2023-02-13T07:23:22.514Z,2.60
2023-02-13T07:25:49.558Z,2.60
2023-02-13T07:28:16.513Z,2.60
2023-02-13T07:30:43.468Z,2.60
2023-02-13T07:33:12.679Z,2.60
2023-02-13T07:35:42.153Z,2.70
2023-02-13T07:38:09.730Z,2.70
2023-02-13T07:40:41.698Z,2.70
2023-02-13T07:43:08.617Z,2.70
2023-02-13T07:45:35.686Z,2.80
2023-02-13T07:48:02.518Z,2.80
2023-02-13T07:50:29.521Z,2.80
2023-02-13T07:52:57.423Z,2.80
2023-02-13T07:55:24.826Z,2.90
2023-02-13T07:57:51.806Z,2.90
2023-02-13T08:00:19.054Z,2.90
2023-02-13T08:02:46.243Z,3.00
2023-02-13T08:05:13.578Z,3.00
2023-02-13T08:07:40.784Z,3.00
2023-02-13T08:10:26.903Z,3.10
2023-02-13T08:12:57.759Z,3.10
2023-02-13T08:18:35.051Z,3.20
2023-02-13T08:21:02.591Z,3.20
2023-02-13T08:23:29.621Z,3.30
2023-02-13T08:25:59.788Z,3.30
2023-02-13T08:28:27.431Z,3.40
2023-02-13T08:30:54.558Z,3.40
2023-02-13T08:33:21.565Z,3.50
2023-02-13T08:35:48.919Z,3.60
2023-02-13T08:38:15.854Z,3.60
2023-02-13T08:40:42.754Z,3.70
2023-02-13T08:43:09.663Z,3.70
2023-02-13T08:45:37.155Z,3.90
2023-02-13T08:48:04.416Z,3.90
2023-02-13T08:50:32.027Z,4.00
2023-02-13T08:52:58.991Z,4.10
2023-02-13T08:55:26.693Z,4.20
2023-02-13T08:57:55.574Z,4.20
2023-02-13T09:00:22.644Z,4.20
2023-02-13T09:02:49.761Z,4.30
2023-02-13T09:05:16.928Z,4.40
2023-02-13T09:07:43.850Z,4.60
2023-02-13T09:10:10.949Z,4.70
2023-02-13T09:12:40.193Z,4.80
2023-02-13T09:15:07.372Z,4.90
2023-02-13T09:17:34.302Z,5.10
2023-02-13T09:20:01.442Z,5.10
2023-02-13T09:22:29.258Z,5.30
2023-02-13T09:24:56.209Z,5.40
2023-02-13T09:27:23.221Z,5.50
2023-02-13T09:29:50.085Z,5.70
2023-02-13T09:32:17.385Z,5.80
2023-02-13T09:34:44.376Z,5.90
2023-02-13T09:37:11.308Z,6.10
2023-02-13T09:39:38.354Z,6.20
2023-02-13T09:42:08.510Z,6.30
2023-02-13T09:44:43.456Z,6.40
2023-02-13T09:47:28.701Z,6.60
2023-02-13T09:50:18.967Z,6.70
2023-02-13T09:52:46.754Z,6.90
2023-02-13T09:55:15.603Z,7.10
2023-02-13T09:57:58.422Z,7.20
2023-02-13T10:00:39.289Z,7.20
2023-02-13T10:03:25.312Z,7.40
2023-02-13T10:06:01.575Z,7.50
2023-02-13T10:08:58.002Z,7.70
2023-02-13T10:11:51.330Z,7.80
2023-02-13T10:14:32.327Z,7.90
2023-02-13T10:17:05.697Z,8.00
2023-02-13T10:19:36.571Z,8.10
2023-02-13T10:22:20.547Z,8.20
2023-02-13T10:24:49.030Z,8.30
2023-02-13T10:27:18.991Z,8.40
2023-02-13T10:30:06.450Z,8.50
2023-02-13T10:32:48.824Z,8.60
2023-02-13T10:35:27.845Z,8.80
2023-02-13T10:37:56.947Z,9.00
2023-02-13T10:40:38.352Z,9.00
2023-02-13T10:43:08.839Z,9.10
2023-02-13T10:45:54.555Z,9.20
2023-02-13T10:48:27.421Z,9.40
2023-02-13T10:51:10.187Z,9.40
2023-02-13T10:53:46.385Z,9.50
2023-02-13T10:56:17.870Z,9.70
2023-02-13T10:59:11.076Z,9.80
2023-02-13T11:01:40.919Z,9.90
2023-02-13T11:04:10.244Z,10.10
2023-02-13T11:06:38.264Z,10.20
2023-02-13T11:09:08.950Z,10.30
2023-02-13T11:11:37.619Z,10.40
2023-02-13T11:14:10.774Z,10.50
2023-02-13T11:16:48.596Z,10.70
2023-02-13T11:19:26.847Z,10.80
2023-02-13T11:21:55.454Z,10.90
2023-02-13T11:24:23.729Z,11.00
2023-02-13T11:26:52.465Z,11.10
2023-02-13T11:29:22.409Z,11.20
2023-02-13T11:32:00.860Z,11.30
2023-02-13T11:34:29.443Z,11.50
2023-02-13T11:37:14.102Z,11.60
2023-02-13T11:39:41.914Z,11.70
2023-02-13T11:42:16.215Z,11.90
2023-02-13T11:44:44.677Z,12.00
2023-02-13T11:47:11.625Z,12.10
2023-02-13T11:49:41.974Z,12.20
2023-02-13T11:52:24.065Z,12.30
2023-02-13T11:55:04.054Z,12.40
2023-02-13T11:57:33.838Z,12.60
2023-02-13T12:00:04.639Z,12.70
2023-02-13T12:02:50.157Z,12.80
2023-02-13T12:05:18.874Z,12.90
2023-02-13T12:07:46.511Z,13.00
2023-02-13T12:10:24.330Z,13.10
2023-02-13T12:13:13.524Z,13.20
2023-02-13T12:15:40.813Z,13.40
2023-02-13T12:18:16.154Z,13.40
2023-02-13T12:20:49.093Z,13.50
2023-02-13T12:23:31.931Z,13.70
2023-02-13T12:26:02.248Z,13.80
2023-02-13T12:28:45.364Z,13.90
2023-02-13T12:31:15.292Z,13.90
2023-02-13T12:33:50.133Z,13.90
2023-02-13T12:36:21.293Z,14.10
2023-02-13T12:39:01.965Z,14.30
2023-02-13T12:41:41.322Z,14.30
2023-02-13T12:44:17.511Z,14.40
2023-02-13T12:47:07.490Z,14.40
2023-02-13T12:49:46.632Z,14.50
2023-02-13T12:52:25.559Z,14.70
2023-02-13T12:55:04.922Z,15.00
2023-02-13T12:57:50.599Z,14.90
2023-02-13T13:00:23.117Z,15.00
2023-02-13T13:03:08.435Z,15.20
2023-02-13T13:05:50.719Z,15.40
2023-02-13T13:08:30.850Z,15.60
2023-02-13T13:11:03.682Z,15.70
2023-02-13T13:13:39.272Z,15.80
2023-02-13T13:16:06.092Z,15.90
2023-02-13T13:18:51.671Z,16.00
2023-02-13T13:21:28.031Z,16.10
2023-02-13T13:24:01.327Z,16.00
2023-02-13T13:26:37.435Z,16.10
2023-02-13T13:29:06.956Z,16.20
2023-02-13T13:31:35.439Z,16.40
2023-02-13T13:34:04.564Z,16.50
2023-02-13T13:36:36.938Z,16.50
2023-02-13T13:39:14.157Z,16.50
2023-02-13T13:41:51.681Z,16.50
2023-02-13T13:44:26.568Z,16.50
2023-02-13T13:46:53.593Z,16.60
2023-02-13T13:49:24.073Z,16.70
2023-02-13T13:51:51.025Z,16.60
2023-02-13T13:54:18.957Z,16.70
2023-02-13T13:57:06.167Z,16.70
2023-02-13T13:59:33.081Z,16.70
2023-02-13T14:02:20.365Z,16.70
2023-02-13T14:05:01.811Z,16.80
2023-02-13T14:07:38.928Z,17.00
2023-02-13T14:10:06.505Z,17.20
2023-02-13T14:12:33.542Z,17.30
2023-02-13T14:15:00.702Z,17.40
2023-02-13T14:17:43.225Z,17.50
2023-02-13T14:20:36.813Z,17.60
2023-02-13T14:23:08.561Z,17.60
2023-02-13T14:25:35.693Z,17.50
2023-02-13T14:28:03.814Z,17.60
2023-02-13T14:30:35.805Z,17.80
2023-02-13T14:33:06.190Z,17.80
2023-02-13T14:35:38.101Z,17.90
2023-02-13T14:38:08.591Z,17.90
2023-02-13T14:40:47.130Z,17.90
2023-02-13T14:43:20.359Z,17.70
2023-02-13T14:45:58.239Z,17.80
2023-02-13T14:48:32.128Z,17.80
2023-02-13T14:51:00.304Z,17.80
2023-02-13T14:53:30.310Z,17.90
2023-02-13T14:56:08.234Z,17.90
2023-02-13T14:58:41.294Z,17.90
2023-02-13T15:01:19.098Z,18.00
2023-02-13T15:03:50.593Z,18.00
2023-02-13T15:06:26.793Z,18.10
2023-02-13T15:08:54.464Z,18.10
2023-02-13T15:11:38.570Z,18.00
2023-02-13T15:14:19.397Z,18.10
2023-02-13T15:16:48.410Z,18.10
2023-02-13T15:19:16.561Z,18.10
2023-02-13T15:21:47.680Z,18.10
2023-02-13T15:24:14.921Z,18.00
2023-02-13T15:26:42.002Z,17.80
2023-02-13T15:29:25.782Z,17.70
2023-02-13T15:31:55.140Z,17.60
2023-02-13T15:34:25.894Z,17.70
2023-02-13T15:36:53.084Z,17.80
2023-02-13T15:39:23.210Z,17.80
2023-02-13T15:41:52.675Z,17.80
2023-02-13T15:44:24.804Z,17.80
2023-02-13T15:46:53.732Z,17.70
2023-02-13T15:49:26.141Z,17.60
2023-02-13T15:52:07.201Z,17.50
2023-02-13T15:54:35.936Z,17.60
2023-02-13T15:57:04.541Z,17.50
2023-02-13T15:59:34.038Z,17.50
2023-02-13T16:02:01.393Z,17.40
2023-02-13T16:04:28.686Z,17.20
2023-02-13T16:06:56.567Z,17.10
2023-02-13T16:09:25.646Z,17.00
2023-02-13T16:11:52.794Z,16.80
2023-02-13T16:14:30.387Z,16.80
2023-02-13T16:17:00.004Z,16.60
2023-02-13T16:19:27.036Z,16.50
2023-02-13T16:21:54.696Z,16.40
2023-02-13T16:24:21.988Z,16.40
2023-02-13T16:26:49.656Z,16.40
2023-02-13T16:29:20.903Z,16.40
2023-02-13T16:31:48.500Z,16.40
2023-02-13T16:34:35.858Z,16.30
2023-02-13T16:37:05.289Z,16.20
2023-02-13T16:39:33.530Z,16.10
2023-02-13T16:42:00.813Z,16.00
2023-02-13T16:44:32.091Z,15.90
2023-02-13T16:47:03.108Z,15.70
2023-02-13T16:49:32.778Z,15.60
2023-02-13T16:52:01.362Z,15.50
2023-02-13T16:54:39.572Z,15.30
2023-02-13T16:57:21.586Z,15.00
2023-02-13T17:06:24.384Z,14.30
2023-02-13T17:08:52.892Z,14.00
2023-02-13T17:11:20.220Z,13.80
2023-02-13T17:13:47.067Z,13.60
2023-02-13T17:16:17.923Z,13.30
2023-02-13T17:18:45.064Z,13.20
2023-02-13T17:21:15.591Z,13.00
2023-02-13T17:23:42.616Z,12.80
2023-02-13T17:26:09.598Z,12.60
2023-02-13T17:28:36.524Z,12.50
2023-02-13T17:31:03.542Z,12.30
2023-02-13T17:33:31.891Z,12.20
2023-02-13T17:35:58.782Z,12.00
2023-02-13T17:38:25.697Z,11.80
2023-02-13T17:40:52.708Z,11.70
2023-02-13T17:43:20.454Z,11.50
2023-02-13T17:45:48.203Z,11.40
2023-02-13T17:48:15.343Z,11.30
2023-02-13T17:50:42.460Z,11.20
2023-02-13T17:53:18.660Z,11.00
2023-02-13T17:55:47.892Z,10.90
2023-02-13T17:58:14.799Z,10.70
2023-02-13T18:00:42.083Z,10.60
2023-02-13T18:03:08.909Z,10.40
2023-02-13T18:05:38.637Z,10.30
2023-02-13T18:08:05.546Z,10.20
2023-02-13T18:10:33.945Z,10.00
2023-02-13T18:13:04.635Z,9.90
2023-02-13T18:15:36.568Z,9.80
2023-02-13T18:18:03.696Z,9.80
2023-02-13T18:20:30.634Z,9.70
2023-02-13T18:22:57.750Z,9.60
2023-02-13T18:25:24.799Z,9.60
2023-02-13T18:27:51.835Z,9.50
2023-02-13T18:30:20.034Z,9.40
2023-02-13T18:32:54.270Z,9.30
2023-02-13T18:35:22.310Z,9.20
2023-02-13T18:38:13.816Z,9.20
2023-02-13T18:40:40.891Z,9.10
2023-02-13T18:43:07.845Z,9.00
2023-02-13T18:45:38.336Z,9.00
2023-02-13T18:48:05.755Z,8.90
2023-02-13T18:50:34.075Z,8.70
2023-02-13T18:53:01.023Z,8.60
2023-02-13T18:55:28.061Z,8.50
2023-02-13T18:57:55.014Z,8.50
2023-02-13T19:00:23.688Z,8.50
2023-02-13T19:02:50.780Z,8.40
2023-02-13T19:05:17.788Z,8.30
2023-02-13T19:07:45.010Z,8.30
2023-02-13T19:10:11.988Z,8.20
2023-02-13T19:12:38.849Z,8.10
2023-02-13T19:15:06.320Z,8.10
2023-02-13T19:17:34.222Z,8.10
2023-02-13T19:20:02.940Z,8.00
2023-02-13T19:22:30.004Z,7.80
2023-02-13T19:24:56.941Z,7.80
2023-02-13T19:27:23.982Z,7.80
2023-02-13T19:29:51.026Z,7.70
2023-02-13T19:32:18.169Z,7.70
2023-02-13T19:34:45.158Z,7.60
2023-02-13T19:37:12.067Z,7.60
2023-02-13T19:39:39.142Z,7.50
2023-02-13T19:42:06.083Z,7.50
2023-02-13T19:44:33.092Z,7.40
2023-02-13T19:47:00.043Z,7.40
2023-02-13T19:49:27.006Z,7.30
2023-02-13T19:51:53.949Z,7.30
2023-02-13T19:54:24.016Z,7.20
2023-02-13T19:56:51.202Z,7.10
2023-02-13T19:59:18.149Z,7.10
2023-02-13T20:01:45.910Z,7.10
2023-02-13T20:04:13.157Z,7.00
2023-02-13T20:06:40.173Z,7.00
2023-02-13T20:09:09.055Z,6.90
2023-02-13T20:11:36.183Z,6.90
2023-02-13T20:14:05.537Z,6.80
2023-02-13T20:16:39.186Z,6.80
2023-02-13T20:19:11.801Z,6.80
2023-02-13T20:21:38.876Z,6.70
2023-02-13T20:24:05.946Z,6.60
2023-02-13T20:26:33.421Z,6.60
2023-02-13T20:29:00.335Z,6.60
2023-02-13T20:31:29.260Z,6.50
2023-02-13T20:33:57.584Z,6.50
2023-02-13T20:36:25.886Z,6.40
2023-02-13T20:38:53.962Z,6.40
2023-02-13T20:41:25.313Z,6.30
2023-02-13T20:43:52.650Z,6.30
2023-02-13T20:46:19.778Z,6.30
2023-02-13T20:48:52.928Z,6.30
2023-02-13T20:51:19.817Z,6.30
2023-02-13T20:53:47.429Z,6.20
2023-02-13T20:56:16.282Z,6.20
2023-02-13T20:58:43.727Z,6.20
2023-02-13T21:01:14.817Z,6.10
2023-02-13T21:03:42.414Z,6.10
2023-02-13T21:06:09.749Z,6.00
2023-02-13T21:08:37.135Z,6.00
2023-02-13T21:11:05.005Z,6.00
2023-02-13T21:13:35.644Z,5.90
2023-02-13T21:16:06.354Z,5.90
2023-02-13T21:18:33.457Z,5.80
2023-02-13T21:21:01.003Z,5.80
2023-02-13T21:23:28.223Z,5.70
2023-02-13T21:25:55.176Z,5.70
2023-02-13T21:28:26.088Z,5.90
2023-02-13T21:30:53.032Z,6.10
2023-02-13T21:33:22.911Z,6.30
2023-02-13T21:35:51.017Z,6.50
2023-02-13T21:38:19.725Z,6.60
2023-02-13T21:40:46.713Z,6.70
2023-02-13T21:43:13.609Z,6.80
2023-02-13T21:45:40.566Z,6.90
2023-02-13T21:48:07.503Z,7.00
2023-02-13T21:50:34.470Z,7.10
2023-02-13T21:53:01.484Z,7.10
2023-02-13T21:56:12.768Z,7.10
2023-02-13T21:58:40.346Z,7.10
2023-02-13T22:01:30.464Z,7.10
2023-02-13T22:04:00.952Z,7.20
2023-02-13T22:06:29.344Z,7.20
2023-02-13T22:09:00.985Z,7.20
2023-02-13T22:11:28.072Z,7.30
2023-02-13T22:13:56.353Z,7.20
2023-02-13T22:16:23.492Z,7.20
2023-02-13T22:18:50.949Z,7.20
2023-02-13T22:21:19.565Z,7.20
2023-02-13T22:23:46.812Z,7.20
2023-02-13T22:26:17.740Z,7.10
2023-02-13T22:28:45.359Z,7.10
2023-02-13T22:31:12.892Z,7.10
2023-02-13T22:33:40.279Z,7.10
2023-02-13T22:36:07.617Z,7.00
2023-02-13T22:38:38.383Z,7.00
2023-02-13T22:41:09.310Z,7.00
2023-02-13T22:43:36.753Z,7.00
2023-02-13T22:46:07.144Z,6.90
2023-02-13T22:48:38.224Z,6.90
2023-02-13T22:51:07.922Z,6.80
2023-02-13T22:53:35.013Z,6.80
2023-02-13T22:56:02.374Z,6.80
2023-02-13T22:58:29.591Z,6.80
2023-02-13T23:00:56.745Z,6.80
2023-02-13T23:03:24.183Z,6.70
2023-02-13T23:05:51.323Z,6.70
2023-02-13T23:08:18.577Z,6.60
2023-02-13T23:11:05.511Z,6.60
2023-02-13T23:13:32.474Z,6.50
2023-02-13T23:15:59.543Z,6.50
2023-02-13T23:18:26.749Z,6.40
2023-02-13T23:20:53.671Z,6.40
2023-02-13T23:23:21.468Z,6.30
2023-02-13T23:25:48.293Z,6.30
2023-02-13T23:28:15.255Z,6.30
2023-02-13T23:30:42.318Z,6.20
2023-02-13T23:33:09.340Z,6.10
2023-02-13T23:35:36.695Z,6.10
2023-02-13T23:38:03.649Z,6.10
2023-02-13T23:40:30.600Z,6.00
2023-02-13T23:42:58.139Z,6.00
2023-02-13T23:45:25.099Z,5.90
2023-02-13T23:47:52.161Z,5.90
2023-02-13T23:50:19.362Z,5.90
2023-02-13T23:52:46.325Z,5.80
2023-02-13T23:55:13.468Z,5.80
2023-02-13T23:57:40.534Z,5.70
